Time;durP1;ratioP1;P1;durP2;ratioP2;P2;SDS_P1;SDS_P2;PMS_P1;PMS_P2;Temp;Humidity;BMP_temperature;BMP_pressure;BME280_temperature;BME280_humidity;BME280_pressure;Samples;Min_cycle;Max_cycle;Signal;HPM_P1;HPM_P2
2022/06/07 00:00:09;;;;;;;5.05;3.20;;;;;;;27.91;47.65;99657.81;5061790;28;20029;-80
2022/06/07 00:02:35;;;;;;;4.47;3.35;;;;;;;27.91;48.05;99666.72;5060935;28;20055;-82
2022/06/07 00:05:02;;;;;;;3.95;2.95;;;;;;;27.90;48.16;99658.81;5061392;28;20097;-79
2022/06/07 00:07:28;;;;;;;4.40;3.13;;;;;;;27.88;47.86;99659.81;5061292;28;20028;-81
2022/06/07 00:09:54;;;;;;;4.45;3.35;;;;;;;27.87;48.23;99657.25;5061977;28;20028;-80
2022/06/07 00:12:20;;;;;;;4.40;3.22;;;;;;;27.85;47.96;99653.88;5061718;28;20103;-82
2022/06/07 00:14:46;;;;;;;5.35;3.20;;;;;;;27.84;47.80;99655.69;5080228;28;20052;-79
2022/06/07 00:17:13;;;;;;;5.15;3.00;;;;;;;27.82;48.01;99656.78;5062156;28;20025;-79
2022/06/07 00:19:39;;;;;;;4.68;3.25;;;;;;;27.82;47.73;99660.34;5059871;28;20028;-79
2022/06/07 00:22:06;;;;;;;5.10;3.20;;;;;;;27.81;48.04;99655.09;5077396;28;20464;-80
2022/06/07 00:24:32;;;;;;;4.82;3.40;;;;;;;27.80;47.91;99656.91;5061261;28;20032;-79
2022/06/07 00:26:58;;;;;;;4.82;3.22;;;;;;;27.79;47.97;99651.72;5063142;28;20039;-83
2022/06/07 00:29:26;;;;;;;4.15;2.83;;;;;;;27.77;47.94;99651.84;5064161;28;20025;-84
2022/06/07 00:31:52;;;;;;;4.07;2.90;;;;;;;27.78;47.90;99650.03;5082608;28;20043;-83
2022/06/07 00:34:18;;;;;;;4.47;2.92;;;;;;;27.77;48.09;99651.84;5064987;28;20020;-83
2022/06/07 00:36:44;;;;;;;4.28;3.10;;;;;;;27.76;48.05;99652.84;5082042;28;20031;-82
2022/06/07 00:39:10;;;;;;;4.35;3.03;;;;;;;27.76;47.82;99654.66;5063014;28;20139;-80
2022/06/07 00:41:37;;;;;;;4.78;3.22;;;;;;;27.75;47.81;99661.88;5059479;28;20506;-81
2022/06/07 00:44:17;;;;;;;4.53;3.30;;;;;;;27.74;48.12;99660.13;5077029;28;20501;-79
2022/06/07 00:46:47;;;;;;;5.38;3.30;;;;;;;27.74;48.18;99665.50;5059318;28;20067;-80
2022/06/07 00:49:15;;;;;;;6.05;3.00;;;;;;;27.72;47.81;99662.97;5059537;28;20094;-82
2022/06/07 00:51:41;;;;;;;5.38;3.17;;;;;;;27.71;48.03;99655.91;5059522;28;20021;-80
2022/06/07 00:54:07;;;;;;;3.75;3.05;;;;;;;27.71;48.05;99663.94;5077280;28;20032;-81
2022/06/07 00:56:33;;;;;;;5.45;3.25;;;;;;;27.71;48.10;99655.06;5077105;28;20464;-79
2022/06/07 00:59:03;;;;;;;5.05;3.20;;;;;;;27.69;48.12;99651.69;5059182;28;20032;-82
2022/06/07 01:01:30;;;;;;;5.45;3.28;;;;;;;27.67;47.71;99653.63;5059028;28;20074;-79
2022/06/07 01:03:56;;;;;;;4.07;3.00;;;;;;;27.68;47.96;99660.69;5058738;28;20385;-79
2022/06/07 01:11:50;;;;;;;3.85;3.20;;;;;;;27.64;47.98;99654.72;5076334;28;20027;-81
2022/06/07 01:14:15;;;;;;;5.53;3.40;;;;;;;27.63;48.12;99647.69;5058899;28;20025;-81
2022/06/07 01:16:41;;;;;;;3.42;2.70;;;;;;;27.63;48.16;99652.19;5061142;28;20385;-81
2022/06/07 01:19:07;;;;;;;3.92;3.10;;;;;;;27.60;48.13;99651.47;5058992;28;20028;-79
2022/06/07 01:21:35;;;;;;;4.20;2.95;;;;;;;27.60;48.11;99654.16;5076417;28;20420;-79
2022/06/07 01:24:02;;;;;;;5.57;3.28;;;;;;;27.59;47.85;99651.59;5058741;28;20038;-81
2022/06/07 01:26:28;;;;;;;4.38;3.35;;;;;;;27.59;47.81;99652.47;5058541;28;20488;-80
2022/06/07 01:28:53;;;;;;;4.00;2.90;;;;;;;27.57;47.88;99648.19;5058727;28;20037;-80
2022/06/07 01:31:19;;;;;;;3.65;2.90;;;;;;;27.57;48.03;99653.53;5075965;28;20024;-79
2022/06/07 01:33:44;;;;;;;4.90;3.40;;;;;;;27.56;48.35;99658.03;5076024;28;20028;-81
2022/06/07 01:36:13;;;;;;;3.95;3.05;;;;;;;27.56;47.95;99652.69;5058061;28;20454;-79
2022/06/07 01:38:42;;;;;;;4.32;3.10;;;;;;;27.54;47.81;99643.94;5076211;28;20021;-79
2022/06/07 01:43:52;;;;;;;4.20;3.30;;;;;;;27.52;47.89;99639.69;5075748;28;20172;-80
2022/06/07 01:46:18;;;;;;;4.30;2.65;;;;;;;27.51;47.93;99633.50;5058290;28;20495;-79
2022/06/07 01:48:46;;;;;;;3.65;3.08;;;;;;;27.49;48.03;99635.44;5075807;28;20025;-81
2022/06/07 01:51:12;;;;;;;4.30;2.95;;;;;;;27.48;48.09;99648.00;5058145;28;20043;-80
2022/06/07 01:53:38;;;;;;;4.90;3.20;;;;;;;27.47;48.20;99650.81;5058900;28;20025;-81
2022/06/07 01:56:07;;;;;;;4.93;2.92;;;;;;;27.46;48.13;99654.47;5059317;28;20488;-82
2022/06/07 01:58:33;;;;;;;3.78;2.70;;;;;;;27.45;48.14;99655.47;5077839;28;20354;-81
2022/06/07 02:00:59;;;;;;;4.43;2.72;;;;;;;27.44;48.25;99653.75;5058171;28;20035;-82
2022/06/07 02:03:24;;;;;;;4.03;3.05;;;;;;;27.42;48.15;99647.66;5058240;28;20470;-79
2022/06/07 02:05:58;;;;;;;3.83;2.88;;;;;;;27.43;48.25;99652.03;5058336;28;20069;-80
2022/06/07 02:08:24;;;;;;;4.00;3.08;;;;;;;27.40;48.31;99646.97;5075447;28;20024;-80
2022/06/07 02:10:50;;;;;;;3.45;2.55;;;;;;;27.38;48.13;99643.56;5057825;28;20021;-80
2022/06/07 02:13:15;;;;;;;4.38;2.97;;;;;;;27.39;48.20;99650.59;5057553;28;20025;-80
2022/06/07 02:15:41;;;;;;;3.97;2.90;;;;;;;27.38;48.07;99654.25;5057699;28;20029;-79
2022/06/07 02:18:07;;;;;;;4.45;3.20;;;;;;;27.37;48.12;99660.59;5075438;28;20078;-80
2022/06/07 02:20:33;;;;;;;3.78;2.80;;;;;;;27.36;48.40;99651.75;5058637;28;20025;-80
2022/06/07 02:22:59;;;;;;;4.25;3.15;;;;;;;27.33;48.46;99652.84;5058532;28;20025;-79
2022/06/07 02:25:25;;;;;;;5.15;3.00;;;;;;;27.30;48.16;99661.13;5076357;28;20031;-80
2022/06/07 02:27:51;;;;;;;4.10;3.00;;;;;;;27.31;48.46;99665.50;5059430;28;20107;-80
2022/06/07 02:30:18;;;;;;;4.88;3.03;;;;;;;27.31;48.25;99654.78;5059481;28;20063;-80
2022/06/07 02:32:44;;;;;;;4.10;2.97;;;;;;;27.30;48.62;99652.25;5077073;28;20103;-81
2022/06/07 02:35:10;;;;;;;4.22;2.78;;;;;;;27.28;48.20;99649.72;5077354;28;20067;-82
2022/06/07 02:37:37;;;;;;;4.43;3.00;;;;;;;27.27;48.55;99647.16;5060428;28;20035;-84
2022/06/07 02:40:05;;;;;;;3.13;2.50;;;;;;;27.26;48.15;99657.00;5062180;28;20339;-80
2022/06/07 02:42:31;;;;;;;3.67;2.30;;;;;;;27.25;48.81;99663.34;5063593;28;20121;-81
2022/06/07 02:44:57;;;;;;;4.07;2.80;;;;;;;27.25;48.45;99660.66;5080696;28;20020;-83
2022/06/07 02:47:23;;;;;;;4.90;3.42;;;;;;;27.22;48.20;99663.63;5081749;28;20028;-82
2022/06/07 02:49:50;;;;;;;4.10;2.90;;;;;;;27.23;48.41;99664.47;5081424;28;20027;-85
2022/06/07 02:52:15;;;;;;;3.78;2.80;;;;;;;27.21;48.36;99665.44;5065750;28;20401;-83
2022/06/07 02:54:41;;;;;;;3.53;2.63;;;;;;;27.20;48.45;99666.44;5066045;28;20028;-83
2022/06/07 02:57:06;;;;;;;3.53;2.72;;;;;;;27.20;48.22;99668.25;5082971;28;20400;-82
2022/06/07 02:59:32;;;;;;;4.90;2.42;;;;;;;27.19;48.32;99666.56;5080339;28;20031;-80
2022/06/07 03:01:58;;;;;;;3.53;2.90;;;;;;;27.18;48.55;99664.84;5057316;28;20017;-79
2022/06/07 03:04:24;;;;;;;4.07;2.63;;;;;;;27.17;48.17;99668.53;5056629;28;20067;-80
2022/06/07 03:06:49;;;;;;;3.95;2.70;;;;;;;27.16;48.41;99662.31;5074913;28;20024;-80
2022/06/07 03:09:15;;;;;;;4.15;3.00;;;;;;;27.16;48.69;99669.50;5059019;28;20178;-80
2022/06/07 03:11:41;;;;;;;4.55;2.88;;;;;;;27.16;48.52;99661.47;5079276;28;20469;-81
2022/06/07 03:14:06;;;;;;;3.83;2.75;;;;;;;27.13;48.38;99667.06;5079177;28;20343;-80
2022/06/07 03:16:32;;;;;;;3.70;2.72;;;;;;;27.14;48.29;99668.75;5061219;28;20031;-80
2022/06/07 03:18:58;;;;;;;3.47;2.75;;;;;;;27.12;48.66;99670.72;5060940;28;20016;-81
2022/06/07 03:21:24;;;;;;;3.72;2.58;;;;;;;27.11;48.53;99674.41;5078858;28;20096;-80
2022/06/07 03:23:49;;;;;;;4.40;2.80;;;;;;;27.10;48.40;99673.53;5062993;28;20025;-81
2022/06/07 03:26:16;;;;;;;3.70;2.65;;;;;;;27.08;48.59;99676.34;5078984;28;20046;-80
2022/06/07 03:28:42;;;;;;;4.00;2.80;;;;;;;27.08;48.35;99681.69;5078702;28;20473;-80
2022/06/07 03:31:14;;;;;;;4.03;2.90;;;;;;;27.07;48.28;99684.53;5060779;28;20020;-79
2022/06/07 03:33:42;;;;;;;3.80;2.65;;;;;;;27.07;48.37;99684.53;5063015;28;20020;-83
2022/06/07 03:36:17;;;;;;;3.80;2.70;;;;;;;27.05;48.56;99681.97;5060736;28;20111;-80
2022/06/07 03:38:43;;;;;;;4.28;2.90;;;;;;;27.05;48.79;99684.63;5060403;28;20024;-80
2022/06/07 03:41:14;;;;;;;3.80;2.60;;;;;;;27.03;48.33;99678.53;5078243;28;20031;-80
2022/06/07 03:43:39;;;;;;;3.15;2.42;;;;;;;27.04;48.28;99684.75;5060276;28;20048;-80
2022/06/07 03:46:16;;;;;;;3.70;2.70;;;;;;;27.03;48.44;99688.44;5060536;28;20039;-79
2022/06/07 03:48:43;;;;;;;3.35;2.38;;;;;;;27.01;48.54;99680.50;5060207;28;20119;-79
2022/06/07 03:51:10;;;;;;;4.28;2.60;;;;;;;27.00;48.69;99686.84;5060574;28;20021;-82
2022/06/07 03:53:35;;;;;;;3.67;2.78;;;;;;;26.99;48.72;99677.13;5077810;28;20065;-80
2022/06/07 03:56:02;;;;;;;3.85;2.53;;;;;;;26.99;48.63;99682.47;5078048;28;20378;-79
2022/06/07 03:58:28;;;;;;;3.60;2.72;;;;;;;26.99;48.58;99677.13;5078110;28;20021;-81
2022/06/07 04:00:57;;;;;;;3.47;2.63;;;;;;;26.98;48.66;99680.78;5060255;28;20035;-82
2022/06/07 04:03:23;;;;;;;5.90;3.00;;;;;;;26.97;48.29;99684.41;5077860;28;20055;-84
2022/06/07 04:05:50;;;;;;;3.83;2.70;;;;;;;26.98;48.50;99685.28;5062279;28;20020;-79
2022/06/07 04:08:17;;;;;;;3.65;2.63;;;;;;;26.95;48.61;99681.03;5060172;28;20055;-80
2022/06/07 04:10:54;;;;;;;4.55;2.90;;;;;;;26.95;48.51;99691.72;5077834;28;20454;-81
2022/06/07 04:13:22;;;;;;;3.97;2.50;;;;;;;26.94;48.27;99695.41;5060028;28;20029;-80
2022/06/07 04:15:48;;;;;;;3.13;2.53;;;;;;;26.94;48.56;99700.75;5060568;28;20043;-80
2022/06/07 04:18:15;;;;;;;4.00;2.70;;;;;;;26.92;48.44;99694.69;5060560;28;20028;-79
2022/06/07 04:20:41;;;;;;;3.80;2.60;;;;;;;26.91;48.57;99700.94;5059906;28;20094;-80
2022/06/07 04:23:08;;;;;;;3.22;2.58;;;;;;;26.92;48.59;99708.06;5060321;28;20016;-81
2022/06/07 04:25:35;;;;;;;4.35;2.60;;;;;;;26.91;48.43;99709.88;5077730;28;20035;-82
2022/06/07 04:28:01;;;;;;;3.58;2.67;;;;;;;26.90;48.35;99718.00;5060631;28;20370;-80
2022/06/07 04:30:27;;;;;;;4.90;3.00;;;;;;;26.89;48.66;99713.63;5060294;28;20107;-79
2022/06/07 04:32:53;;;;;;;4.03;2.70;;;;;;;26.89;48.47;99708.28;5060423;28;20446;-80
2022/06/07 04:35:19;;;;;;;3.55;2.50;;;;;;;26.89;48.44;99713.63;5060381;28;20036;-82
2022/06/07 04:37:46;;;;;;;4.20;2.47;;;;;;;26.87;48.40;99711.06;5078476;28;20039;-79
2022/06/07 04:40:12;;;;;;;3.90;2.65;;;;;;;26.86;48.35;99708.50;5078396;28;20086;-80
2022/06/07 04:42:38;;;;;;;3.55;2.53;;;;;;;26.86;48.38;99711.19;5060579;28;20021;-81
2022/06/07 04:45:06;;;;;;;3.60;2.60;;;;;;;26.86;48.34;99704.03;5061196;28;20035;-82
2022/06/07 04:47:32;;;;;;;3.05;2.22;;;;;;;26.86;48.28;99703.16;5081325;28;20094;-80
2022/06/07 04:49:58;;;;;;;3.85;2.70;;;;;;;26.84;48.57;99705.13;5063437;28;20430;-80
2022/06/07 04:52:24;;;;;;;3.55;2.67;;;;;;;26.83;48.62;99703.44;5064130;28;20055;-80
2022/06/07 04:54:49;;;;;;;3.30;2.40;;;;;;;26.81;48.58;99699.06;5064533;28;20090;-81
2022/06/07 04:57:15;;;;;;;4.03;2.78;;;;;;;26.83;48.63;99703.44;5065237;28;20050;-80
2022/06/07 04:59:40;;;;;;;3.95;2.53;;;;;;;26.81;48.56;99712.44;5065278;28;20024;-81
2022/06/07 05:02:06;;;;;;;4.18;2.78;;;;;;;26.82;48.24;99718.63;5064507;28;20070;-80
2022/06/07 05:04:31;;;;;;;2.97;2.42;;;;;;;26.80;48.43;99721.47;5064713;28;20413;-80
2022/06/07 05:06:57;;;;;;;3.78;2.42;;;;;;;26.80;48.33;99728.63;5065849;28;20115;-82
2022/06/07 05:09:24;;;;;;;3.42;2.28;;;;;;;26.79;48.38;99729.59;5066222;28;20432;-82
2022/06/07 05:11:52;;;;;;;3.28;2.35;;;;;;;26.77;48.47;99728.84;5061836;28;20047;-84
2022/06/07 05:14:19;;;;;;;4.20;2.58;;;;;;;26.78;48.48;99727.91;5067787;28;20062;-84
2022/06/07 05:16:45;;;;;;;3.72;2.47;;;;;;;26.77;48.71;99736.88;5066684;28;20062;-85
2022/06/07 05:19:12;;;;;;;3.47;2.30;;;;;;;26.76;48.16;99735.19;5066492;28;20127;-84
2022/06/07 05:21:39;;;;;;;4.00;2.40;;;;;;;26.76;48.40;99730.69;5060897;28;20029;-80
2022/06/07 05:24:05;;;;;;;4.50;2.75;;;;;;;26.75;48.21;99739.72;5058703;28;20082;-80
2022/06/07 05:26:46;;;;;;;4.00;2.70;;;;;;;26.76;48.30;99745.91;5058692;28;20044;-80
2022/06/07 05:29:27;;;;;;;3.63;2.50;;;;;;;26.75;48.61;99749.56;5060594;28;20030;-82
2022/06/07 05:31:53;;;;;;;3.67;2.28;;;;;;;26.73;48.17;99747.00;5057366;28;20466;-81
2022/06/07 05:34:19;;;;;;;3.60;2.40;;;;;;;26.73;48.50;99757.69;5058787;28;20021;-80
2022/06/07 05:36:44;;;;;;;3.05;2.13;;;;;;;26.71;48.02;99757.00;5058734;28;20365;-80
2022/06/07 05:39:30;;;;;;;3.88;2.35;;;;;;;26.72;48.16;99756.00;5058483;28;20042;-80
2022/06/07 05:41:56;;;;;;;3.57;2.43;;;;;;;26.70;48.09;99757.97;5058423;28;20025;-81
2022/06/07 05:44:24;;;;;;;4.78;2.55;;;;;;;26.70;48.10;99754.44;5058316;28;20266;-80
2022/06/07 05:46:52;;;;;;;3.55;2.20;;;;;;;26.70;48.05;99757.97;5058364;28;20123;-79
2022/06/07 05:49:18;;;;;;;3.22;2.42;;;;;;;26.68;48.26;99757.22;5058549;28;20480;-80
2022/06/07 05:51:44;;;;;;;3.25;2.25;;;;;;;26.68;48.20;99765.25;5075955;28;20031;-79
2022/06/07 05:54:12;;;;;;;4.10;1.80;;;;;;;26.67;48.09;99758.19;5058143;28;20036;-80
2022/06/07 05:56:37;;;;;;;2.13;1.90;;;;;;;26.66;48.02;99757.38;5058107;28;20094;-80
2022/06/07 05:59:05;;;;;;;3.78;2.30;;;;;;;26.66;48.11;99760.03;5058089;28;20028;-80
2022/06/07 06:01:32;;;;;;;3.08;1.98;;;;;;;26.67;47.96;99763.56;5058001;28;20060;-82
2022/06/07 06:03:58;;;;;;;3.08;2.03;;;;;;;26.66;48.18;99764.53;5059948;28;20063;-80
2022/06/07 06:06:25;;;;;;;3.47;1.92;;;;;;;26.67;48.01;99766.22;5038175;28;20438;-80
2022/06/07 06:11:36;;;;;;;3.65;2.30;;;;;;;26.65;48.16;99776.22;5058086;28;20035;-81
2022/06/07 06:14:02;;;;;;;3.03;1.95;;;;;;;26.64;47.97;99779.88;5055853;28;20044;-81
2022/06/07 06:16:28;;;;;;;2.70;1.90;;;;;;;26.63;48.24;99775.50;5055972;28;20036;-80
2022/06/07 06:18:56;;;;;;;3.13;2.00;;;;;;;26.63;47.99;99784.38;5038494;28;20027;-80
2022/06/07 06:21:24;;;;;;;3.45;2.00;;;;;;;26.62;48.12;99784.47;5038421;28;20063;-81
2022/06/07 06:23:51;;;;;;;3.17;2.35;;;;;;;26.62;48.02;99781.81;5038700;28;20017;-80
2022/06/07 06:26:20;;;;;;;2.83;1.90;;;;;;;26.61;47.93;99782.78;5055657;28;20032;-80
2022/06/07 06:28:46;;;;;;;2.65;1.88;;;;;;;26.62;48.14;99781.81;5037754;28;20025;-80
2022/06/07 06:31:13;;;;;;;3.05;2.08;;;;;;;26.59;47.97;99782.94;5038128;28;20094;-79
2022/06/07 06:33:44;;;;;;;2.35;1.65;;;;;;;26.61;48.04;99790.81;5055976;28;20447;-82
2022/06/07 06:36:12;;;;;;;3.10;2.00;;;;;;;26.61;48.42;99796.16;5055265;28;20025;-80
2022/06/07 06:38:38;;;;;;;2.90;1.73;;;;;;;26.59;47.91;99799.00;5037807;28;20112;-81
2022/06/07 06:41:20;;;;;;;2.92;2.00;;;;;;;26.60;48.08;99789.97;5055175;28;20450;-81
2022/06/07 06:43:47;;;;;;;4.35;2.00;;;;;;;26.61;48.02;99796.16;5037403;28;20032;-82
2022/06/07 06:46:16;;;;;;;2.17;1.80;;;;;;;26.60;47.89;99800.69;5056280;28;20035;-82
2022/06/07 06:48:43;;;;;;;2.67;1.80;;;;;;;26.60;47.96;99783.75;5038908;28;20099;-82
2022/06/07 06:51:11;;;;;;;3.03;1.90;;;;;;;26.61;47.95;99797.03;5037948;28;20039;-81
2022/06/07 06:53:38;;;;;;;2.30;1.70;;;;;;;26.58;48.13;99797.25;5038531;28;20146;-79
2022/06/07 06:56:04;;;;;;;2.42;1.63;;;;;;;26.59;48.20;99790.09;5037262;28;20146;-81
2022/06/07 06:58:30;;;;;;;2.40;1.80;;;;;;;26.60;47.92;99794.47;5037128;28;20040;-81
2022/06/07 07:01:10;;;;;;;3.42;1.98;;;;;;;26.59;47.93;99796.31;5037414;28;20451;-81
2022/06/07 07:03:38;;;;;;;2.60;1.90;;;;;;;26.60;48.01;99791.78;5049175;28;20052;-79
2022/06/07 07:06:05;;;;;;;1.95;1.50;;;;;;;26.59;48.02;99795.44;5075327;28;20028;-80
2022/06/07 07:08:32;;;;;;;2.40;1.70;;;;;;;26.59;48.15;99796.31;5059091;28;20028;-81
2022/06/07 07:11:06;;;;;;;2.72;1.75;;;;;;;26.58;48.04;99799.94;5059171;28;20410;-81
2022/06/07 07:13:32;;;;;;;2.55;1.73;;;;;;;26.61;48.05;99807.72;5059127;28;20037;-80
2022/06/07 07:15:57;;;;;;;2.60;1.83;;;;;;;26.59;48.10;99798.13;5060578;28;20039;-80
2022/06/07 07:18:24;;;;;;;2.30;1.65;;;;;;;26.60;47.92;99798.00;5061161;28;20024;-81
2022/06/07 07:20:50;;;;;;;2.65;1.67;;;;;;;26.59;47.90;99793.63;5080095;28;20031;-81
2022/06/07 07:23:16;;;;;;;2.50;1.60;;;;;;;26.59;48.12;99793.63;5061973;28;20028;-80
2022/06/07 07:25:42;;;;;;;2.58;1.90;;;;;;;26.59;48.14;99792.78;5062815;28;20036;-81
2022/06/07 07:28:08;;;;;;;2.13;1.50;;;;;;;26.60;48.00;99794.47;5064139;28;20052;-85
2022/06/07 07:30:34;;;;;;;3.53;1.60;;;;;;;26.59;47.75;99800.81;5079274;28;20461;-83
2022/06/07 07:33:00;;;;;;;2.38;1.42;;;;;;;26.59;48.02;99803.47;5079813;28;20111;-83
2022/06/07 07:35:26;;;;;;;2.28;1.52;;;;;;;26.59;48.15;99807.00;5081654;28;20056;-83
2022/06/07 07:37:51;;;;;;;2.45;1.60;;;;;;;26.58;47.77;99801.78;5065519;28;20052;-83
2022/06/07 07:40:17;;;;;;;2.53;1.50;;;;;;;26.59;47.93;99792.78;5082839;28;20458;-83
2022/06/07 07:42:42;;;;;;;2.42;1.40;;;;;;;26.58;47.82;99799.09;5059624;28;20484;-80
2022/06/07 07:45:09;;;;;;;2.40;1.52;;;;;;;26.57;48.07;99800.09;5057346;28;20516;-81
2022/06/07 07:47:35;;;;;;;1.85;1.40;;;;;;;26.58;48.19;99809.81;5057282;28;20028;-81
2022/06/07 07:50:01;;;;;;;2.75;1.52;;;;;;;26.57;47.85;99800.09;5074855;28;20028;-80
2022/06/07 07:52:27;;;;;;;2.65;1.67;;;;;;;26.58;47.94;99799.09;5057403;28;20416;-80
2022/06/07 07:54:53;;;;;;;2.38;1.60;;;;;;;26.59;47.87;99803.47;5075656;28;20020;-80
2022/06/07 07:57:18;;;;;;;3.00;1.40;;;;;;;26.59;48.08;99798.13;5060792;28;20039;-82
2022/06/07 07:59:44;;;;;;;2.40;1.60;;;;;;;26.59;47.84;99793.63;5060683;28;20465;-79
2022/06/07 08:02:17;;;;;;;2.65;1.70;;;;;;;26.60;47.77;99794.47;5077758;28;20016;-81
2022/06/07 08:04:42;;;;;;;2.10;1.70;;;;;;;26.61;48.06;99788.13;5040255;28;20033;-80
2022/06/07 08:07:08;;;;;;;2.28;1.65;;;;;;;26.61;47.86;99788.13;5058256;28;20056;-80
2022/06/07 08:09:34;;;;;;;2.90;1.77;;;;;;;26.59;47.83;99788.28;5040334;28;20037;-80
2022/06/07 08:12:05;;;;;;;2.08;1.50;;;;;;;26.59;47.99;99787.41;5040150;28;20029;-82
2022/06/07 08:14:33;;;;;;;2.03;1.40;;;;;;;26.60;48.07;99778.41;5041985;28;20025;-81
2022/06/07 08:16:59;;;;;;;2.38;1.27;;;;;;;26.61;47.88;99786.31;5040773;28;20401;-80
2022/06/07 08:19:26;;;;;;;2.78;1.65;;;;;;;26.60;47.99;99789.97;5040501;28;20025;-79
2022/06/07 08:21:51;;;;;;;2.88;1.40;;;;;;;26.61;47.86;99791.69;5040208;28;20044;-80
2022/06/07 08:24:17;;;;;;;2.08;1.52;;;;;;;26.61;47.77;99780.09;5042517;28;20029;-82
2022/06/07 08:26:46;;;;;;;2.38;1.52;;;;;;;26.62;47.83;99784.47;5039941;28;20025;-80
2022/06/07 08:29:12;;;;;;;1.90;1.30;;;;;;;26.60;47.83;99789.97;5057688;28;20489;-80
2022/06/07 08:31:38;;;;;;;2.80;1.45;;;;;;;26.60;47.90;99794.47;5039859;28;20033;-80
2022/06/07 08:39:34;;;;;;;1.63;1.25;;;;;;;26.61;47.68;99791.69;5056983;28;20122;-80
2022/06/07 08:42:38;;;;;;;3.22;1.60;;;;;;;26.62;47.89;99788.03;5057211;28;20147;-80
2022/06/07 08:45:15;;;;;;;2.42;1.35;;;;;;;26.64;47.90;99785.22;5056820;28;20041;-80
2022/06/07 08:47:43;;;;;;;2.50;1.33;;;;;;;26.62;47.73;99787.16;5039867;28;20390;-81
2022/06/07 08:50:21;;;;;;;1.90;1.35;;;;;;;26.61;47.83;99786.31;5039728;28;20110;-80
2022/06/07 08:52:51;;;;;;;2.45;1.40;;;;;;;26.61;47.89;99790.81;5056843;28;20029;-81
2022/06/07 08:55:27;;;;;;;2.47;1.45;;;;;;;26.60;47.78;99783.75;5041105;28;20028;-80
2022/06/07 08:58:00;;;;;;;2.08;1.13;;;;;;;26.61;47.73;99785.47;5057717;28;20097;-81
2022/06/07 09:00:28;;;;;;;2.08;1.40;;;;;;;26.60;47.82;99789.97;5057196;28;20076;-81
2022/06/07 09:03:09;;;;;;;2.10;1.48;;;;;;;26.59;47.97;99790.09;5063608;28;20044;-80
2022/06/07 09:05:34;;;;;;;1.40;1.20;;;;;;;26.58;47.75;99785.72;5076817;28;20036;-82
2022/06/07 09:08:00;;;;;;;2.15;1.52;;;;;;;26.59;47.88;99787.41;5059542;28;20025;-80
2022/06/07 09:13:19;;;;;;;2.63;1.33;;;;;;;26.58;47.70;99785.72;5077488;28;20044;-80
2022/06/07 09:15:49;;;;;;;2.25;1.30;;;;;;;26.59;47.75;99787.41;5059591;28;20385;-80
2022/06/07 09:18:16;;;;;;;2.35;1.42;;;;;;;26.58;47.97;99789.22;5059537;28;20193;-82
2022/06/07 09:20:54;;;;;;;2.03;1.27;;;;;;;26.58;47.65;99793.75;5059959;28;20036;-80
2022/06/07 09:23:47;;;;;;;2.83;1.48;;;;;;;26.59;47.96;99798.13;5059985;28;20032;-80
2022/06/07 09:26:18;;;;;;;2.33;1.38;;;;;;;26.58;47.63;99791.06;5060096;28;20028;-80
2022/06/07 09:29:03;;;;;;;1.73;1.30;;;;;;;26.58;47.63;99791.06;5060187;28;20048;-80
2022/06/07 09:31:28;;;;;;;2.88;1.33;;;;;;;26.59;47.65;99782.06;5061734;28;20373;-83
2022/06/07 09:33:57;;;;;;;2.50;1.70;;;;;;;26.59;47.66;99787.41;5062888;28;20107;-80
2022/06/07 09:36:32;;;;;;;2.85;1.30;;;;;;;26.60;47.74;99791.78;5064316;28;20489;-80
2022/06/07 09:39:04;;;;;;;1.63;1.38;;;;;;;26.60;47.61;99795.34;5081720;28;20378;-82
2022/06/07 09:41:43;;;;;;;2.13;1.50;;;;;;;26.60;47.43;99800.69;5085807;28;20047;-81
2022/06/07 09:44:21;;;;;;;2.58;1.60;;;;;;;26.61;47.62;99790.81;5068179;28;20370;-82
2022/06/07 09:47:25;;;;;;;3.05;1.50;;;;;;;26.61;47.88;99788.13;5086603;28;20476;-81
2022/06/07 09:50:14;;;;;;;2.60;1.52;;;;;;;26.62;47.40;99797.88;5074887;28;20051;-84
2022/06/07 09:52:45;;;;;;;2.05;1.20;;;;;;;26.63;47.75;99802.28;5084345;28;20032;-83
2022/06/07 09:55:33;;;;;;;2.88;1.52;;;;;;;26.62;47.88;99792.50;5066258;28;20062;-83
2022/06/07 09:58:17;;;;;;;2.70;1.20;;;;;;;26.62;47.54;99788.03;5084776;28;20446;-82
2022/06/07 10:00:54;;;;;;;2.00;1.48;;;;;;;26.62;47.57;99798.72;5085689;28;20028;-83
2022/06/07 10:03:46;;;;;;;2.80;1.60;;;;;;;26.63;47.55;99799.59;5063811;28;20079;-80
2022/06/07 10:06:27;;;;;;;2.33;1.27;;;;;;;26.63;47.78;99799.59;5039778;28;20055;-79
2022/06/07 10:09:30;;;;;;;3.65;1.70;;;;;;;26.62;47.44;99804.09;5057671;28;20465;-80
2022/06/07 10:12:11;;;;;;;2.00;1.40;;;;;;;26.63;47.53;99799.59;5057968;28;20056;-82
2022/06/07 10:14:49;;;;;;;1.60;1.10;;;;;;;26.62;47.76;99787.16;5058152;28;20029;-81
2022/06/07 10:17:30;;;;;;;1.65;1.13;;;;;;;26.62;47.62;99792.50;5059925;28;20085;-80
2022/06/07 10:20:03;;;;;;;2.72;1.30;;;;;;;26.63;47.67;99800.44;5058134;28;20032;-80
2022/06/07 10:22:33;;;;;;;3.17;1.50;;;;;;;26.63;47.44;99794.25;5057717;28;20361;-80
2022/06/07 10:25:23;;;;;;;2.25;1.33;;;;;;;26.63;47.64;99783.53;5057874;28;20416;-80
2022/06/07 10:28:02;;;;;;;3.15;1.42;;;;;;;26.64;47.60;99795.94;5057567;28;20074;-80
2022/06/07 10:30:38;;;;;;;2.75;1.35;;;;;;;26.64;47.71;99787.91;5075839;28;20028;-80
2022/06/07 10:33:40;;;;;;;2.78;1.45;;;;;;;26.64;47.32;99785.22;5057313;28;20354;-80
2022/06/07 10:36:15;;;;;;;2.75;1.50;;;;;;;26.63;47.47;99792.41;5057382;28;20418;-80
2022/06/07 10:38:57;;;;;;;1.88;1.40;;;;;;;26.64;47.38;99785.22;5057410;28;20461;-81
2022/06/07 10:41:45;;;;;;;2.78;1.50;;;;;;;26.63;47.30;99784.38;5057716;28;20505;-80
2022/06/07 10:44:15;;;;;;;3.72;1.80;;;;;;;26.64;47.59;99785.22;5057693;28;20032;-80
2022/06/07 10:46:42;;;;;;;2.90;1.80;;;;;;;26.65;47.59;99784.25;5058500;28;20032;-81
2022/06/07 10:49:29;;;;;;;2.20;1.33;;;;;;;26.65;47.47;99784.25;5058120;28;20028;-81
2022/06/07 10:52:20;;;;;;;1.85;1.30;;;;;;;26.65;47.24;99776.22;5076347;28;20058;-80
2022/06/07 10:54:58;;;;;;;2.78;1.40;;;;;;;26.67;47.61;99774.25;5075117;28;20421;-80
2022/06/07 10:57:36;;;;;;;1.63;1.30;;;;;;;26.66;47.27;99767.22;5075355;28;20033;-81
2022/06/07 11:00:18;;;;;;;2.38;1.17;;;;;;;26.66;47.42;99770.75;5077029;28;20090;-80
2022/06/07 11:03:14;;;;;;;3.35;1.80;;;;;;;26.66;47.22;99767.22;5075268;28;20055;-81
2022/06/07 11:11:33;;;;;;;3.42;1.17;;;;;;;26.67;47.37;99758.19;5075652;28;20109;-81
2022/06/07 11:14:37;;;;;;;3.88;1.45;;;;;;;26.67;47.30;99763.56;5057702;28;20119;-80
2022/06/07 11:17:24;;;;;;;2.08;1.13;;;;;;;26.67;47.41;99753.72;5057549;28;20362;-80
2022/06/07 11:19:52;;;;;;;2.72;1.50;;;;;;;26.67;47.39;99756.38;5075349;28;20029;-80
2022/06/07 11:22:21;;;;;;;2.60;1.58;;;;;;;26.67;47.45;99752.84;5057403;28;20020;-80
2022/06/07 11:24:59;;;;;;;3.20;1.50;;;;;;;26.68;47.38;99754.53;5057318;28;20048;-82
2022/06/07 11:27:27;;;;;;;2.70;1.30;;;;;;;26.68;47.47;99746.50;5056932;28;20028;-81
2022/06/07 11:30:23;;;;;;;2.00;1.20;;;;;;;26.70;47.47;99749.06;5075807;28;20116;-80
2022/06/07 11:32:56;;;;;;;2.22;1.20;;;;;;;26.69;47.56;99742.88;5057215;28;20037;-80
2022/06/07 11:35:48;;;;;;;2.30;1.50;;;;;;;26.71;47.32;99742.75;5061924;28;20462;-84
2022/06/07 11:38:17;;;;;;;3.75;1.40;;;;;;;26.72;47.46;99739.94;5042317;28;20471;-82
2022/06/07 11:40:43;;;;;;;3.25;1.30;;;;;;;26.73;47.53;99740.81;5051596;28;20497;-82
2022/06/07 11:46:33;;;;;;;1.95;1.30;;;;;;;26.75;47.23;99745.06;5078437;28;20121;-81
2022/06/07 11:49:17;;;;;;;3.17;1.55;;;;;;;26.74;47.29;99732.66;5060863;28;20370;-81
2022/06/07 11:51:58;;;;;;;2.45;1.40;;;;;;;26.75;47.31;99718.31;5078698;28;20078;-82
2022/06/07 11:54:28;;;;;;;3.22;1.50;;;;;;;26.77;47.34;99720.81;5061297;28;20466;-82
2022/06/07 11:57:01;;;;;;;2.72;1.25;;;;;;;26.76;47.54;99721.81;5061636;28;20028;-83
2022/06/07 11:59:42;;;;;;;3.83;1.67;;;;;;;26.76;47.42;99722.66;5062626;28;20382;-82
2022/06/07 12:02:17;;;;;;;5.03;1.58;;;;;;;26.78;47.27;99719.88;5062431;28;20048;-83
2022/06/07 12:04:45;;;;;;;4.90;1.58;;;;;;;26.78;47.66;99718.03;5063230;28;20123;-82
2022/06/07 12:07:38;;;;;;;5.10;1.40;;;;;;;26.78;47.54;99718.03;5063332;28;20028;-81
2022/06/07 12:10:16;;;;;;;3.38;1.30;;;;;;;26.79;47.59;99714.38;5063871;28;20032;-83
2022/06/07 12:12:50;;;;;;;4.03;1.80;;;;;;;26.80;47.58;99709.88;5064861;28;20458;-84
2022/06/07 12:15:17;;;;;;;4.57;1.65;;;;;;;26.80;47.48;99709.88;5064539;28;20039;-85